Weather at Nederland Airport

Public forecast

Using degrees Celsius for public forecast. Weather courtesy of forecast.io.

Closest aviation weather report (METAR) to Nederland Airport

Closest report is Hoedspruit Air Force Base Airport, 13.9 nm (25.7 km) WSW. Retrieved 2021/05/09 10:00 UTC (46 minutes ago):

FAHS 091000Z AUTO 16011G23KT //// // ////// 25/14 Q1020

Closest aviation forecast (TAF) to Nederland Airport

Forecast is more than 12 hours old.

Closest forecast is Hoedspruit Air Force Base Airport, 13.9 nm (25.7 km) WSW. Retrieved 2017/05/23 04:01 UTC (4 years ago):

TAF FAHS 230300Z 2304/2315 VRB02KT CAVOK TX29/2312ZTN12/2304Z